Taneytown, Maryland
Current Conditions -  °F | °C
As of 5:15 AM on Monday 26 Jan 2015 (Local Time) from KDMW Reporting Station
Overcast Overcast  
Wind Chill: -6°   Ceiling: 700
Heat Index: -1°   Visibility: 10mi
Dew Point: -2°   Wind: 12mph
Humidity: 93%   Direction: 90°E
Pressure: 29.79"   Gusts: 16mph
Location:  39.66°N, 77.17°W
Report Text: KDMW 261015Z AUTO 09010G14KT 10SM OVC007 M01/M02 A2979 RMK AO2
Loading
Personal Weather Stations






























Interactive Weather Map New forecast layout! Learn more

10-Day Weather Forecast

Advertisements
Track Severe Weather on mobile